createdAt,value
2022-10-23T00:01:13.668Z,11.90
2022-10-23T00:03:41.364Z,12.15
2022-10-23T00:06:08.762Z,12.36
2022-10-23T00:08:36.121Z,12.61
2022-10-23T00:11:13.554Z,12.58
2022-10-23T00:13:41.127Z,12.58
2022-10-23T00:16:08.931Z,12.82
2022-10-23T00:18:36.518Z,12.90
2022-10-23T00:21:04.366Z,12.64
2022-10-23T00:23:31.959Z,12.98
2022-10-23T00:26:00.249Z,13.45
2022-10-23T00:28:27.822Z,13.42
2022-10-23T00:30:55.421Z,13.42
2022-10-23T00:33:22.775Z,13.52
2022-10-23T00:35:50.108Z,13.65
2022-10-23T00:38:17.709Z,13.42
2022-10-23T00:40:47.132Z,13.39
2022-10-23T00:43:19.156Z,13.52
2022-10-23T00:45:46.788Z,13.44
2022-10-23T00:48:14.314Z,13.36
2022-10-23T00:50:41.734Z,13.40
2022-10-23T00:53:09.890Z,13.66
2022-10-23T00:55:38.384Z,13.38
2022-10-23T00:58:06.620Z,13.17
2022-10-23T01:00:54.063Z,13.35
2022-10-23T01:03:24.133Z,12.85
2022-10-23T01:06:15.302Z,12.82
2022-10-23T01:08:50.451Z,12.59
2022-10-23T01:11:37.640Z,12.71
2022-10-23T01:14:16.725Z,12.78
2022-10-23T01:17:08.029Z,12.89
2022-10-23T01:20:02.489Z,13.24
2022-10-23T01:23:08.620Z,13.03
2022-10-23T01:25:44.697Z,12.73
2022-10-23T01:28:13.117Z,12.92
2022-10-23T01:33:20.098Z,11.63
2022-10-23T01:36:01.865Z,10.84
2022-10-23T01:38:59.102Z,10.80
2022-10-23T01:41:31.945Z,10.24
2022-10-23T01:44:04.693Z,10.59
2022-10-23T01:46:35.350Z,10.59
2022-10-23T01:49:04.211Z,10.72
2022-10-23T01:54:01.947Z,11.44
2022-10-23T01:56:33.357Z,11.29
2022-10-23T01:59:03.821Z,11.52
2022-10-23T02:01:31.996Z,11.85
2022-10-23T02:04:00.036Z,12.28
2022-10-23T02:06:27.468Z,12.15
2022-10-23T02:08:54.793Z,12.41
2022-10-23T02:11:22.442Z,12.55
2022-10-23T02:13:52.556Z,12.49
2022-10-23T02:16:47.773Z,12.50
2022-10-23T02:19:24.500Z,12.80
2022-10-23T02:21:56.056Z,12.74
2022-10-23T02:24:36.564Z,12.86
2022-10-23T02:27:08.998Z,12.88
2022-10-23T02:29:42.862Z,12.82
2022-10-23T02:32:10.331Z,12.93
2022-10-23T02:34:37.936Z,12.99
2022-10-23T02:37:05.310Z,12.97
2022-10-23T02:39:32.760Z,13.00
2022-10-23T02:42:20.398Z,12.90
2022-10-23T02:45:06.566Z,13.13
2022-10-23T02:47:42.093Z,13.10
2022-10-23T02:50:29.733Z,13.05
2022-10-23T02:53:18.301Z,13.08
2022-10-23T02:56:00.832Z,13.03
2022-10-23T02:58:37.434Z,12.97
2022-10-23T03:01:08.345Z,12.96
2022-10-23T03:03:44.420Z,12.90
2022-10-23T03:06:11.814Z,12.87
2022-10-23T03:08:43.876Z,13.00
2022-10-23T03:11:11.289Z,13.02
2022-10-23T03:13:38.932Z,12.98
2022-10-23T03:16:06.281Z,12.78
2022-10-23T03:18:34.446Z,12.73
2022-10-23T03:21:02.492Z,12.55
2022-10-23T03:23:30.110Z,12.35
2022-10-23T03:25:57.593Z,12.55
2022-10-23T03:28:26.244Z,12.79
2022-10-23T03:30:53.571Z,12.82
2022-10-23T03:33:21.021Z,12.64
2022-10-23T03:35:49.070Z,12.70
2022-10-23T03:38:16.628Z,12.71
2022-10-23T03:40:44.374Z,12.71
2022-10-23T03:43:12.807Z,12.49
2022-10-23T03:45:40.211Z,12.52
2022-10-23T03:48:07.576Z,12.76
2022-10-23T03:50:35.539Z,12.99
2022-10-23T03:53:02.908Z,12.96
2022-10-23T03:55:30.242Z,13.17
2022-10-23T03:57:57.821Z,13.02
2022-10-23T04:00:25.178Z,12.79
2022-10-23T04:02:52.749Z,12.83
2022-10-23T04:05:20.079Z,12.79
2022-10-23T04:07:49.597Z,12.89
2022-10-23T04:10:17.239Z,12.84
2022-10-23T04:12:45.076Z,12.84
2022-10-23T04:15:12.801Z,12.86
2022-10-23T04:17:41.696Z,12.80
2022-10-23T04:20:10.094Z,13.00
2022-10-23T04:22:37.447Z,12.76
2022-10-23T04:25:05.231Z,12.40
2022-10-23T04:27:34.397Z,12.46
2022-10-23T04:30:03.646Z,12.72
2022-10-23T04:32:31.523Z,12.85
2022-10-23T04:34:58.925Z,12.69
2022-10-23T04:37:26.434Z,12.67
2022-10-23T04:39:54.091Z,12.45
2022-10-23T04:42:21.584Z,12.45
2022-10-23T04:44:48.977Z,12.75
2022-10-23T04:47:16.585Z,12.82
2022-10-23T04:49:45.302Z,12.71
2022-10-23T04:52:18.031Z,12.50
2022-10-23T04:54:45.722Z,12.71
2022-10-23T04:57:14.391Z,12.79
2022-10-23T04:59:44.111Z,12.79
2022-10-23T05:02:11.688Z,12.81
2022-10-23T05:04:39.102Z,12.77
2022-10-23T05:07:11.848Z,12.63
2022-10-23T05:09:40.180Z,12.49
2022-10-23T05:12:07.707Z,12.51
2022-10-23T05:14:35.898Z,12.57
2022-10-23T05:17:08.755Z,12.35
2022-10-23T05:19:39.261Z,12.40
2022-10-23T05:22:06.911Z,12.50
2022-10-23T05:24:42.301Z,12.76
2022-10-23T05:27:10.345Z,12.81
2022-10-23T05:29:39.757Z,12.48
2022-10-23T05:32:07.343Z,12.27
2022-10-23T05:34:35.470Z,12.36
2022-10-23T05:37:03.146Z,12.45
2022-10-23T05:39:30.890Z,12.16
2022-10-23T05:42:00.762Z,12.43
2022-10-23T05:44:28.098Z,12.06
2022-10-23T05:46:56.238Z,12.31
2022-10-23T05:49:25.004Z,12.43
2022-10-23T05:51:52.658Z,12.68
2022-10-23T05:54:20.488Z,12.33
2022-10-23T05:56:48.354Z,12.42
2022-10-23T05:59:20.467Z,12.46
2022-10-23T06:01:50.823Z,12.66
2022-10-23T06:04:19.097Z,12.35
2022-10-23T06:06:47.727Z,12.72
2022-10-23T06:09:15.342Z,12.79
2022-10-23T06:11:43.073Z,12.79
2022-10-23T06:14:10.796Z,12.92
2022-10-23T06:16:38.376Z,12.97
2022-10-23T06:19:06.012Z,12.96
2022-10-23T06:21:36.752Z,12.99
2022-10-23T06:24:06.332Z,13.17
2022-10-23T06:26:34.293Z,13.22
2022-10-23T06:29:01.945Z,13.32
2022-10-23T06:31:29.901Z,13.41
2022-10-23T06:33:58.430Z,13.44
2022-10-23T06:36:25.997Z,13.42
2022-10-23T06:38:56.367Z,13.55
2022-10-23T06:41:24.836Z,13.54
2022-10-23T06:43:53.381Z,13.65
2022-10-23T06:46:21.090Z,13.72
2022-10-23T06:48:49.479Z,13.93
2022-10-23T06:51:17.188Z,13.84
2022-10-23T06:53:45.099Z,13.81
2022-10-23T06:56:13.328Z,13.91
2022-10-23T06:58:40.941Z,13.98
2022-10-23T07:01:10.858Z,13.94
2022-10-23T07:03:39.579Z,14.03
2022-10-23T07:06:08.386Z,14.09
2022-10-23T07:08:35.830Z,14.27
2022-10-23T07:11:08.179Z,14.45
2022-10-23T07:13:35.887Z,14.19
2022-10-23T07:16:18.958Z,13.69
2022-10-23T07:18:46.805Z,13.94
2022-10-23T07:21:16.585Z,13.91
2022-10-23T07:23:44.291Z,14.58
2022-10-23T07:26:16.948Z,14.34
2022-10-23T07:28:45.494Z,14.59
2022-10-23T07:31:16.536Z,14.54
2022-10-23T07:33:45.778Z,14.80
2022-10-23T07:36:14.037Z,14.21
2022-10-23T07:38:41.478Z,14.86
2022-10-23T07:41:11.608Z,13.76
2022-10-23T07:43:39.856Z,14.25
2022-10-23T07:46:09.763Z,14.15
2022-10-23T07:48:38.410Z,13.48
2022-10-23T07:51:14.390Z,13.72
2022-10-23T07:53:42.517Z,13.84
2022-10-23T07:56:30.316Z,13.51
2022-10-23T07:58:59.680Z,14.38
2022-10-23T08:01:39.343Z,13.95
2022-10-23T08:04:07.115Z,13.71
2022-10-23T08:06:35.724Z,14.17
2022-10-23T08:09:06.266Z,14.32
2022-10-23T08:11:35.881Z,14.33
2022-10-23T08:14:04.693Z,14.93
2022-10-23T08:16:34.305Z,15.15
2022-10-23T08:19:06.046Z,14.91
2022-10-23T08:21:34.295Z,15.22
2022-10-23T08:24:02.050Z,15.20
2022-10-23T08:26:30.018Z,15.55
2022-10-23T08:29:00.426Z,15.66
2022-10-23T08:31:28.284Z,15.91
2022-10-23T08:33:57.247Z,15.91
2022-10-23T08:36:28.173Z,15.94
2022-10-23T08:38:56.466Z,16.03
2022-10-23T08:41:43.757Z,16.22
2022-10-23T08:44:25.147Z,16.42
2022-10-23T08:47:17.638Z,16.42
2022-10-23T08:49:51.903Z,16.48
2022-10-23T08:52:32.291Z,16.63
2022-10-23T08:55:02.816Z,16.73
2022-10-23T08:57:39.991Z,16.62
2022-10-23T09:00:15.110Z,16.71
2022-10-23T09:02:45.145Z,16.72
2022-10-23T09:05:21.963Z,16.76
2022-10-23T09:07:58.756Z,16.80
2022-10-23T09:10:32.401Z,16.90
2022-10-23T09:13:31.968Z,16.88
2022-10-23T09:16:14.422Z,17.07
2022-10-23T09:18:41.883Z,17.42
2022-10-23T09:21:09.899Z,17.28
2022-10-23T09:23:37.336Z,17.25
2022-10-23T09:26:11.970Z,17.37
2022-10-23T09:28:50.701Z,17.49
2022-10-23T09:31:18.840Z,17.55
2022-10-23T09:34:00.154Z,17.53
2022-10-23T09:36:29.363Z,17.42
2022-10-23T09:38:58.936Z,17.33
2022-10-23T09:41:37.267Z,17.26
2022-10-23T09:44:07.565Z,17.36
2022-10-23T09:46:46.825Z,17.33
2022-10-23T09:49:28.309Z,17.22
2022-10-23T09:52:02.897Z,17.28
2022-10-23T09:54:36.678Z,17.56
2022-10-23T09:57:24.143Z,17.43
2022-10-23T09:59:53.108Z,17.53
2022-10-23T10:02:27.383Z,17.78
2022-10-23T10:04:55.269Z,17.85
2022-10-23T10:07:28.648Z,17.55
2022-10-23T10:09:57.927Z,17.69
2022-10-23T10:12:47.387Z,17.97
2022-10-23T10:15:26.838Z,17.58
2022-10-23T10:18:03.051Z,17.61
2022-10-23T10:20:30.438Z,17.91
2022-10-23T10:23:07.332Z,17.78
2022-10-23T10:25:48.550Z,17.56
2022-10-23T10:28:36.912Z,17.85
2022-10-23T10:31:23.753Z,17.40
2022-10-23T10:34:22.145Z,17.64
2022-10-23T10:36:51.636Z,17.52
2022-10-23T10:39:38.352Z,17.52
2022-10-23T10:42:40.619Z,17.64
2022-10-23T10:45:27.097Z,17.56
2022-10-23T10:48:17.536Z,17.31
2022-10-23T10:51:20.100Z,17.30
2022-10-23T10:54:03.349Z,17.27
2022-10-23T10:56:31.804Z,17.26
2022-10-23T10:59:04.494Z,17.34
2022-10-23T11:01:35.471Z,17.47
2022-10-23T11:04:21.822Z,17.66
2022-10-23T11:06:51.249Z,17.68
2022-10-23T11:09:24.552Z,17.55
2022-10-23T11:11:51.947Z,17.55
2022-10-23T11:14:24.055Z,17.58
2022-10-23T11:16:52.434Z,17.69
2022-10-23T11:19:28.156Z,17.86
2022-10-23T11:22:37.918Z,17.81
2022-10-23T11:25:38.455Z,17.85
2022-10-23T11:28:37.613Z,18.09
2022-10-23T11:31:33.660Z,17.81
2022-10-23T11:34:31.962Z,18.04
2022-10-23T11:37:01.577Z,17.84
2022-10-23T11:39:34.728Z,17.92
2022-10-23T11:42:13.793Z,18.08
2022-10-23T11:44:53.885Z,18.02
2022-10-23T11:47:57.600Z,18.21
2022-10-23T11:50:30.410Z,18.55
2022-10-23T11:53:20.863Z,18.67
2022-10-23T11:56:14.656Z,18.85
2022-10-23T11:58:52.239Z,19.12
2022-10-23T12:01:45.511Z,19.09
2022-10-23T12:04:13.253Z,19.01
2022-10-23T12:07:00.788Z,19.11
2022-10-23T12:09:39.297Z,19.20
2022-10-23T12:12:09.537Z,19.13
2022-10-23T12:14:48.232Z,19.01
2022-10-23T12:17:24.257Z,18.95
2022-10-23T12:20:03.058Z,18.98
2022-10-23T12:23:28.116Z,19.14
2022-10-23T12:26:10.846Z,19.32
2022-10-23T12:29:01.362Z,19.42
2022-10-23T12:31:47.884Z,19.63
2022-10-23T12:34:26.878Z,19.72
2022-10-23T12:37:12.591Z,19.83
2022-10-23T12:39:40.750Z,19.88
2022-10-23T12:42:27.701Z,19.73
2022-10-23T12:44:59.405Z,19.74
2022-10-23T12:47:27.005Z,20.04
2022-10-23T12:49:54.323Z,19.84
2022-10-23T12:52:21.926Z,19.92
2022-10-23T12:54:50.927Z,19.90
2022-10-23T12:57:25.993Z,19.97
2022-10-23T13:00:10.355Z,19.58
2022-10-23T13:02:37.805Z,19.67
2022-10-23T13:05:07.346Z,19.20
2022-10-23T13:07:37.501Z,19.22
2022-10-23T13:10:06.774Z,19.46
2022-10-23T13:12:34.988Z,19.50
2022-10-23T13:15:03.470Z,19.26
2022-10-23T13:17:38.778Z,19.08
2022-10-23T13:20:18.358Z,19.34
2022-10-23T13:23:00.426Z,19.34
2022-10-23T13:25:32.756Z,19.41
2022-10-23T13:28:21.887Z,19.61
2022-10-23T13:31:22.767Z,19.56
2022-10-23T13:33:53.052Z,19.49
2022-10-23T13:36:22.523Z,18.95
2022-10-23T13:39:00.265Z,18.95
2022-10-23T13:41:29.066Z,19.50
2022-10-23T13:43:56.753Z,19.41
2022-10-23T13:46:25.654Z,19.62
2022-10-23T13:48:53.149Z,19.57
2022-10-23T13:51:22.796Z,19.44
2022-10-23T13:53:50.373Z,19.44
2022-10-23T13:56:20.036Z,19.02
2022-10-23T13:58:48.046Z,18.46
2022-10-23T14:01:25.334Z,18.70
2022-10-23T14:03:53.762Z,18.62
2022-10-23T14:06:21.156Z,18.85
2022-10-23T14:08:48.606Z,18.78
2022-10-23T14:11:17.039Z,18.99
2022-10-23T14:13:44.498Z,17.97
2022-10-23T14:16:12.481Z,18.03
2022-10-23T14:18:40.136Z,17.86
2022-10-23T14:21:08.066Z,17.98
2022-10-23T14:23:35.394Z,18.35
2022-10-23T14:26:03.844Z,18.35
2022-10-23T14:28:31.195Z,18.42
2022-10-23T14:30:58.518Z,18.23
2022-10-23T14:33:26.489Z,18.35
2022-10-23T14:35:53.820Z,18.35
2022-10-23T14:38:21.162Z,18.46
2022-10-23T14:40:48.791Z,18.43
2022-10-23T14:43:16.133Z,18.69
2022-10-23T14:45:43.478Z,18.34
2022-10-23T14:48:11.076Z,18.03
2022-10-23T14:50:42.950Z,18.15
2022-10-23T14:53:11.152Z,18.19
2022-10-23T14:55:38.475Z,18.29
2022-10-23T14:58:05.952Z,18.24
2022-10-23T15:00:33.567Z,17.98
2022-10-23T15:03:00.881Z,18.26
2022-10-23T15:05:28.268Z,18.18
2022-10-23T15:07:56.553Z,18.21
2022-10-23T15:10:23.924Z,18.20
2022-10-23T15:12:51.360Z,18.31
2022-10-23T15:15:19.070Z,17.94
2022-10-23T15:17:46.398Z,18.18
2022-10-23T15:20:13.749Z,18.11
2022-10-23T15:22:41.529Z,18.49
2022-10-23T15:25:10.550Z,18.25
2022-10-23T15:27:38.665Z,18.15
2022-10-23T15:30:06.634Z,18.17
2022-10-23T15:32:33.965Z,18.19
2022-10-23T15:35:01.325Z,18.06
2022-10-23T15:37:28.910Z,18.30
2022-10-23T15:39:59.656Z,18.27
2022-10-23T15:42:29.765Z,18.17
2022-10-23T15:44:57.076Z,18.12
2022-10-23T15:47:24.448Z,18.20
2022-10-23T15:49:52.040Z,18.16
2022-10-23T15:52:19.383Z,18.12
2022-10-23T15:54:46.761Z,18.19
2022-10-23T15:57:14.553Z,18.17
2022-10-23T15:59:41.873Z,18.28
2022-10-23T16:02:11.206Z,18.10
2022-10-23T16:04:38.892Z,18.14
2022-10-23T16:07:07.241Z,18.26
2022-10-23T16:09:34.604Z,17.96
2022-10-23T16:12:02.195Z,18.22
2022-10-23T16:14:29.503Z,18.18
2022-10-23T16:16:56.862Z,18.29
2022-10-23T16:19:24.484Z,18.13
2022-10-23T16:21:51.781Z,18.08
2022-10-23T16:24:19.098Z,18.34
2022-10-23T16:26:50.362Z,18.26
2022-10-23T16:29:17.686Z,18.07
2022-10-23T16:31:45.038Z,18.27
2022-10-23T16:34:12.639Z,18.24
2022-10-23T16:36:40.041Z,18.18
2022-10-23T16:39:08.976Z,18.20
2022-10-23T16:41:49.339Z,18.27
2022-10-23T16:44:17.311Z,18.29
2022-10-23T16:46:46.049Z,18.10
2022-10-23T16:49:14.422Z,18.20
2022-10-23T16:51:41.803Z,18.20
2022-10-23T16:54:09.630Z,18.31
2022-10-23T16:56:36.969Z,18.24
2022-10-23T16:59:04.284Z,18.37
2022-10-23T17:01:32.495Z,18.32
2022-10-23T17:03:59.987Z,18.19
2022-10-23T17:06:31.335Z,18.19
2022-10-23T17:08:59.541Z,18.09
2022-10-23T17:11:32.205Z,18.07
2022-10-23T17:14:04.821Z,18.06
2022-10-23T17:16:51.390Z,18.12
2022-10-23T17:19:40.158Z,18.22
2022-10-23T17:22:12.441Z,18.13
2022-10-23T17:24:40.165Z,18.09
2022-10-23T17:27:07.514Z,18.18
2022-10-23T17:29:35.186Z,18.16
2022-10-23T17:32:03.163Z,18.15
2022-10-23T17:34:30.527Z,18.13
2022-10-23T17:36:57.890Z,18.15
2022-10-23T17:39:28.474Z,18.01
2022-10-23T17:41:55.829Z,18.05
2022-10-23T17:44:23.161Z,18.16
2022-10-23T17:46:54.091Z,18.10
2022-10-23T17:49:21.994Z,18.05
2022-10-23T17:51:54.095Z,17.93
2022-10-23T17:54:21.802Z,18.06
2022-10-23T17:56:49.151Z,17.95
2022-10-23T17:59:17.502Z,17.96
2022-10-23T18:01:46.863Z,18.02
2022-10-23T18:04:14.648Z,18.10
2022-10-23T18:06:44.425Z,18.13
2022-10-23T18:09:11.969Z,18.00
2022-10-23T18:11:45.290Z,17.98
2022-10-23T18:14:16.110Z,17.97
2022-10-23T18:16:45.494Z,18.09
2022-10-23T18:19:13.476Z,18.20
2022-10-23T18:21:40.893Z,18.17
2022-10-23T18:24:08.505Z,17.99
2022-10-23T18:26:37.695Z,18.22
2022-10-23T18:29:07.500Z,17.93
2022-10-23T18:31:35.883Z,17.84
2022-10-23T18:34:07.823Z,17.93
2022-10-23T18:36:37.807Z,17.99
2022-10-23T18:39:05.837Z,18.11
2022-10-23T18:41:38.363Z,18.07
2022-10-23T18:44:05.959Z,18.13
2022-10-23T18:46:33.342Z,17.89
2022-10-23T18:49:00.737Z,17.85
2022-10-23T18:51:30.664Z,17.96
2022-10-23T18:54:00.200Z,17.98
2022-10-23T18:56:28.103Z,18.12
2022-10-23T18:58:59.930Z,17.89
2022-10-23T19:01:28.176Z,17.88
2022-10-23T19:06:30.524Z,18.04
2022-10-23T19:08:57.958Z,17.97
2022-10-23T19:11:25.561Z,17.93
2022-10-23T19:13:53.524Z,17.88
2022-10-23T19:16:29.448Z,17.93
2022-10-23T19:18:58.915Z,17.83
2022-10-23T19:21:31.112Z,17.80
2022-10-23T19:24:00.585Z,17.88
2022-10-23T19:26:27.936Z,18.12
2022-10-23T19:28:55.245Z,17.32
2022-10-23T19:31:23.524Z,17.66
2022-10-23T19:33:50.928Z,17.05
2022-10-23T19:36:22.358Z,17.37
2022-10-23T19:38:51.129Z,17.51
2022-10-23T19:41:18.903Z,17.72
2022-10-23T19:43:46.237Z,17.91
2022-10-23T19:46:13.813Z,17.24
2022-10-23T19:48:46.734Z,17.42
2022-10-23T19:51:14.371Z,17.46
2022-10-23T19:53:42.716Z,17.51
2022-10-23T19:56:11.209Z,17.51
2022-10-23T19:58:38.998Z,17.51
2022-10-23T20:01:08.058Z,17.49
2022-10-23T20:03:35.794Z,17.50
2022-10-23T20:06:03.248Z,17.53
2022-10-23T20:08:32.787Z,17.81
2022-10-23T20:11:02.853Z,17.55
2022-10-23T20:13:30.344Z,17.11
2022-10-23T20:15:57.654Z,17.26
2022-10-23T20:18:25.991Z,17.29
2022-10-23T20:20:53.631Z,17.33
2022-10-23T20:23:20.989Z,17.43
2022-10-23T20:25:48.597Z,17.61
2022-10-23T20:28:15.934Z,17.49
2022-10-23T20:30:45.445Z,17.47
2022-10-23T20:33:13.067Z,17.79
2022-10-23T20:35:41.071Z,17.52
2022-10-23T20:38:08.552Z,17.32
2022-10-23T20:40:36.146Z,17.68
2022-10-23T20:43:03.510Z,17.01
2022-10-23T20:45:30.837Z,16.91
2022-10-23T20:47:58.437Z,17.20
2022-10-23T20:50:25.774Z,17.13
2022-10-23T20:52:53.160Z,16.71
2022-10-23T20:55:20.753Z,17.10
2022-10-23T20:57:48.179Z,17.38
2022-10-23T21:00:15.639Z,17.26
2022-10-23T21:02:46.001Z,17.15
2022-10-23T21:05:15.969Z,17.25
2022-10-23T21:07:43.554Z,17.46
2022-10-23T21:10:10.894Z,17.64
2022-10-23T21:12:38.274Z,17.34
2022-10-23T21:15:06.920Z,17.55
2022-10-23T21:17:36.073Z,17.60
2022-10-23T21:20:03.724Z,17.25
2022-10-23T21:22:31.393Z,17.36
2022-10-23T21:25:00.128Z,17.46
2022-10-23T21:27:27.443Z,17.49
2022-10-23T21:29:55.062Z,17.60
2022-10-23T21:32:22.374Z,17.58
2022-10-23T21:34:49.716Z,17.53
2022-10-23T21:37:17.354Z,17.47
2022-10-23T21:39:44.724Z,17.50
2022-10-23T21:42:12.614Z,17.50
2022-10-23T21:44:40.227Z,16.47
2022-10-23T21:47:07.619Z,17.42
2022-10-23T21:49:34.975Z,17.36
2022-10-23T21:52:02.536Z,17.39
2022-10-23T21:54:29.880Z,17.37
2022-10-23T21:56:57.192Z,16.85
2022-10-23T21:59:27.843Z,16.64
2022-10-23T22:01:57.702Z,17.16
2022-10-23T22:04:25.400Z,17.22
2022-10-23T22:06:53.292Z,17.29
2022-10-23T22:09:21.022Z,17.50
2022-10-23T22:11:50.164Z,17.48
2022-10-23T22:14:17.585Z,17.49
2022-10-23T22:16:44.958Z,17.58
2022-10-23T22:19:13.470Z,17.65
2022-10-23T22:21:40.817Z,17.54
2022-10-23T22:24:08.228Z,17.72
2022-10-23T22:26:41.433Z,17.88
2022-10-23T22:29:22.744Z,17.44
2022-10-23T22:31:50.379Z,17.56
2022-10-23T22:34:27.063Z,17.06
2022-10-23T22:37:07.373Z,17.21
2022-10-23T22:39:34.716Z,17.40
2022-10-23T22:42:02.018Z,17.18
2022-10-23T22:44:29.730Z,17.13
2022-10-23T22:46:57.113Z,17.40
2022-10-23T22:49:24.449Z,17.59
2022-10-23T22:51:52.040Z,17.22
2022-10-23T22:54:19.725Z,17.25
2022-10-23T22:56:47.067Z,17.30
2022-10-23T22:59:14.655Z,17.28
2022-10-23T23:01:44.056Z,17.03
2022-10-23T23:04:26.224Z,17.11
2022-10-23T23:07:01.033Z,17.00
2022-10-23T23:09:28.378Z,16.48
2022-10-23T23:11:56.043Z,16.78
2022-10-23T23:14:24.549Z,16.97
2022-10-23T23:16:52.589Z,16.91
2022-10-23T23:19:20.026Z,16.87
2022-10-23T23:21:47.657Z,16.97
2022-10-23T23:24:15.042Z,16.48
2022-10-23T23:26:42.359Z,16.88
2022-10-23T23:29:09.960Z,16.70
2022-10-23T23:31:37.313Z,17.14
2022-10-23T23:34:04.641Z,16.60
2022-10-23T23:36:32.718Z,16.80
2022-10-23T23:39:00.093Z,17.04
2022-10-23T23:41:27.935Z,16.85
2022-10-23T23:43:56.344Z,16.46
2022-10-23T23:46:23.895Z,16.85
2022-10-23T23:48:51.218Z,16.70
2022-10-23T23:51:20.780Z,16.65
2022-10-23T23:53:48.587Z,16.36
2022-10-23T23:56:15.949Z,16.71
2022-10-23T23:58:43.550Z,16.76
